sensor_id;sensor_type;location;lat;lon;timestamp;temperature;humidity
29817;DHT22;16805;52.956;5.906;2023-07-20T00:01:23;17.50;99.90
29817;DHT22;16805;52.956;5.906;2023-07-20T00:03:48;17.50;99.90
29817;DHT22;16805;52.956;5.906;2023-07-20T00:06:23;17.50;99.90
29817;DHT22;16805;52.956;5.906;2023-07-20T00:08:50;17.50;99.90
29817;DHT22;16805;52.956;5.906;2023-07-20T00:11:16;17.50;99.90
29817;DHT22;16805;52.956;5.906;2023-07-20T00:13:41;17.40;99.90
29817;DHT22;16805;52.956;5.906;2023-07-20T00:16:07;17.40;99.90
29817;DHT22;16805;52.956;5.906;2023-07-20T00:18:33;17.40;99.90
29817;DHT22;16805;52.956;5.906;2023-07-20T00:20:58;17.40;99.90
29817;DHT22;16805;52.956;5.906;2023-07-20T00:23:27;17.30;99.90
29817;DHT22;16805;52.956;5.906;2023-07-20T00:25:53;17.30;99.90
29817;DHT22;16805;52.956;5.906;2023-07-20T00:28:20;17.30;99.90
29817;DHT22;16805;52.956;5.906;2023-07-20T00:30:45;17.20;99.90
29817;DHT22;16805;52.956;5.906;2023-07-20T00:33:12;17.20;99.90
29817;DHT22;16805;52.956;5.906;2023-07-20T00:35:38;17.20;99.90
29817;DHT22;16805;52.956;5.906;2023-07-20T00:38:05;17.10;99.90
29817;DHT22;16805;52.956;5.906;2023-07-20T00:40:40;17.10;99.90
29817;DHT22;16805;52.956;5.906;2023-07-20T00:43:07;17.10;99.90
29817;DHT22;16805;52.956;5.906;2023-07-20T00:45:34;17.00;99.90
29817;DHT22;16805;52.956;5.906;2023-07-20T00:48:01;17.00;99.90
29817;DHT22;16805;52.956;5.906;2023-07-20T00:50:28;16.90;99.90
29817;DHT22;16805;52.956;5.906;2023-07-20T00:52:57;16.90;99.90
29817;DHT22;16805;52.956;5.906;2023-07-20T00:55:24;16.90;99.90
29817;DHT22;16805;52.956;5.906;2023-07-20T00:57:51;16.90;99.90
29817;DHT22;16805;52.956;5.906;2023-07-20T01:00:17;16.80;99.90
29817;DHT22;16805;52.956;5.906;2023-07-20T01:02:43;16.80;99.90
29817;DHT22;16805;52.956;5.906;2023-07-20T01:05:09;16.80;99.90
29817;DHT22;16805;52.956;5.906;2023-07-20T01:07:38;16.80;99.90
29817;DHT22;16805;52.956;5.906;2023-07-20T01:10:36;16.70;99.90
29817;DHT22;16805;52.956;5.906;2023-07-20T01:13:06;16.70;99.90
29817;DHT22;16805;52.956;5.906;2023-07-20T01:15:33;16.70;99.90
29817;DHT22;16805;52.956;5.906;2023-07-20T01:17:59;16.60;99.90
29817;DHT22;16805;52.956;5.906;2023-07-20T01:20:28;16.60;99.90
29817;DHT22;16805;52.956;5.906;2023-07-20T01:23:22;16.60;99.90
29817;DHT22;16805;52.956;5.906;2023-07-20T01:26:12;16.50;99.90
29817;DHT22;16805;52.956;5.906;2023-07-20T01:31:53;16.50;99.90
29817;DHT22;16805;52.956;5.906;2023-07-20T01:34:21;16.50;99.90
29817;DHT22;16805;52.956;5.906;2023-07-20T01:36:48;16.50;99.90
29817;DHT22;16805;52.956;5.906;2023-07-20T01:39:16;16.40;99.90
29817;DHT22;16805;52.956;5.906;2023-07-20T01:41:43;16.40;99.90
29817;DHT22;16805;52.956;5.906;2023-07-20T01:44:08;16.40;99.90
29817;DHT22;16805;52.956;5.906;2023-07-20T01:46:34;16.40;99.90
29817;DHT22;16805;52.956;5.906;2023-07-20T01:49:00;16.40;99.90
29817;DHT22;16805;52.956;5.906;2023-07-20T01:51:25;16.40;99.90
29817;DHT22;16805;52.956;5.906;2023-07-20T01:53:51;16.30;99.90
29817;DHT22;16805;52.956;5.906;2023-07-20T01:56:17;16.30;99.90
29817;DHT22;16805;52.956;5.906;2023-07-20T01:58:42;16.30;99.90
29817;DHT22;16805;52.956;5.906;2023-07-20T02:01:08;16.30;99.90
29817;DHT22;16805;52.956;5.906;2023-07-20T02:03:34;16.20;99.90
29817;DHT22;16805;52.956;5.906;2023-07-20T02:05:59;16.20;99.90
29817;DHT22;16805;52.956;5.906;2023-07-20T02:08:25;16.20;99.90
29817;DHT22;16805;52.956;5.906;2023-07-20T02:10:51;16.20;99.90
29817;DHT22;16805;52.956;5.906;2023-07-20T02:13:17;16.20;99.90
29817;DHT22;16805;52.956;5.906;2023-07-20T02:15:43;16.20;99.90
29817;DHT22;16805;52.956;5.906;2023-07-20T02:18:08;16.10;99.90
29817;DHT22;16805;52.956;5.906;2023-07-20T02:20:35;16.10;99.90
29817;DHT22;16805;52.956;5.906;2023-07-20T02:23:01;16.10;99.90
29817;DHT22;16805;52.956;5.906;2023-07-20T02:25:26;16.10;99.90
29817;DHT22;16805;52.956;5.906;2023-07-20T02:27:52;16.00;99.90
29817;DHT22;16805;52.956;5.906;2023-07-20T02:30:18;16.00;99.90
29817;DHT22;16805;52.956;5.906;2023-07-20T02:32:43;16.00;99.90
29817;DHT22;16805;52.956;5.906;2023-07-20T02:35:16;16.00;99.90
29817;DHT22;16805;52.956;5.906;2023-07-20T02:37:42;16.00;99.90
29817;DHT22;16805;52.956;5.906;2023-07-20T02:40:08;15.90;99.90
29817;DHT22;16805;52.956;5.906;2023-07-20T02:42:34;15.90;99.90
29817;DHT22;16805;52.956;5.906;2023-07-20T02:45:02;15.90;99.90
29817;DHT22;16805;52.956;5.906;2023-07-20T02:47:29;15.80;99.90
29817;DHT22;16805;52.956;5.906;2023-07-20T02:49:54;15.80;99.90
29817;DHT22;16805;52.956;5.906;2023-07-20T02:52:20;15.80;99.90
29817;DHT22;16805;52.956;5.906;2023-07-20T02:54:46;15.80;99.90
29817;DHT22;16805;52.956;5.906;2023-07-20T02:57:11;15.70;99.90
29817;DHT22;16805;52.956;5.906;2023-07-20T02:59:37;15.70;99.90
29817;DHT22;16805;52.956;5.906;2023-07-20T03:02:03;15.70;99.90
29817;DHT22;16805;52.956;5.906;2023-07-20T03:04:28;15.70;99.90
29817;DHT22;16805;52.956;5.906;2023-07-20T03:06:54;15.60;99.90
29817;DHT22;16805;52.956;5.906;2023-07-20T03:09:20;15.60;99.90
29817;DHT22;16805;52.956;5.906;2023-07-20T03:11:45;15.60;99.90
29817;DHT22;16805;52.956;5.906;2023-07-20T03:14:11;15.60;99.90
29817;DHT22;16805;52.956;5.906;2023-07-20T03:16:37;15.60;99.90
29817;DHT22;16805;52.956;5.906;2023-07-20T03:19:02;15.50;99.90
29817;DHT22;16805;52.956;5.906;2023-07-20T03:21:29;15.50;99.90
29817;DHT22;16805;52.956;5.906;2023-07-20T03:23:55;15.50;99.90
29817;DHT22;16805;52.956;5.906;2023-07-20T03:26:20;15.50;99.90
29817;DHT22;16805;52.956;5.906;2023-07-20T03:28:46;15.50;99.90
29817;DHT22;16805;52.956;5.906;2023-07-20T03:31:12;15.40;99.90
29817;DHT22;16805;52.956;5.906;2023-07-20T03:33:38;15.40;99.90
29817;DHT22;16805;52.956;5.906;2023-07-20T03:36:04;15.40;99.90
29817;DHT22;16805;52.956;5.906;2023-07-20T03:38:30;15.40;99.90
29817;DHT22;16805;52.956;5.906;2023-07-20T03:41:00;15.40;99.90
29817;DHT22;16805;52.956;5.906;2023-07-20T03:43:27;15.30;99.90
29817;DHT22;16805;52.956;5.906;2023-07-20T03:45:54;15.30;99.90
29817;DHT22;16805;52.956;5.906;2023-07-20T03:48:21;15.30;99.90
29817;DHT22;16805;52.956;5.906;2023-07-20T03:50:48;15.30;99.90
29817;DHT22;16805;52.956;5.906;2023-07-20T03:53:15;15.30;99.90
29817;DHT22;16805;52.956;5.906;2023-07-20T03:55:44;15.30;99.90
29817;DHT22;16805;52.956;5.906;2023-07-20T03:58:09;15.20;99.90
29817;DHT22;16805;52.956;5.906;2023-07-20T04:00:35;15.20;99.90
29817;DHT22;16805;52.956;5.906;2023-07-20T04:03:01;15.20;99.90
29817;DHT22;16805;52.956;5.906;2023-07-20T04:05:27;15.20;99.90
29817;DHT22;16805;52.956;5.906;2023-07-20T04:07:52;15.20;99.90
29817;DHT22;16805;52.956;5.906;2023-07-20T04:10:19;15.30;99.90
29817;DHT22;16805;52.956;5.906;2023-07-20T04:12:45;15.30;99.90
29817;DHT22;16805;52.956;5.906;2023-07-20T04:15:12;15.40;99.90
29817;DHT22;16805;52.956;5.906;2023-07-20T04:17:39;15.50;99.90
29817;DHT22;16805;52.956;5.906;2023-07-20T04:20:05;15.50;99.90
29817;DHT22;16805;52.956;5.906;2023-07-20T04:22:31;15.60;99.90
29817;DHT22;16805;52.956;5.906;2023-07-20T04:24:57;15.70;99.90
29817;DHT22;16805;52.956;5.906;2023-07-20T04:27:23;15.80;99.90
29817;DHT22;16805;52.956;5.906;2023-07-20T04:29:48;15.80;99.90
29817;DHT22;16805;52.956;5.906;2023-07-20T04:32:14;15.90;99.90
29817;DHT22;16805;52.956;5.906;2023-07-20T04:34:40;16.10;99.90
29817;DHT22;16805;52.956;5.906;2023-07-20T04:37:05;16.10;99.90
29817;DHT22;16805;52.956;5.906;2023-07-20T04:39:31;16.20;99.90
29817;DHT22;16805;52.956;5.906;2023-07-20T04:41:57;16.40;99.90
29817;DHT22;16805;52.956;5.906;2023-07-20T04:44:23;16.50;99.90
29817;DHT22;16805;52.956;5.906;2023-07-20T04:46:49;16.50;99.90
29817;DHT22;16805;52.956;5.906;2023-07-20T04:49:14;16.60;99.90
29817;DHT22;16805;52.956;5.906;2023-07-20T04:51:40;16.70;99.90
29817;DHT22;16805;52.956;5.906;2023-07-20T04:54:06;16.70;99.90
29817;DHT22;16805;52.956;5.906;2023-07-20T04:56:32;16.70;99.90
29817;DHT22;16805;52.956;5.906;2023-07-20T04:58:58;16.80;99.90
29817;DHT22;16805;52.956;5.906;2023-07-20T05:01:24;16.70;99.90
29817;DHT22;16805;52.956;5.906;2023-07-20T05:03:50;16.70;99.90
29817;DHT22;16805;52.956;5.906;2023-07-20T05:06:15;16.70;99.90
29817;DHT22;16805;52.956;5.906;2023-07-20T05:08:41;16.80;99.90
29817;DHT22;16805;52.956;5.906;2023-07-20T05:11:07;16.80;99.90
29817;DHT22;16805;52.956;5.906;2023-07-20T05:13:33;17.00;99.90
29817;DHT22;16805;52.956;5.906;2023-07-20T05:15:59;17.10;99.90
29817;DHT22;16805;52.956;5.906;2023-07-20T05:18:24;17.30;99.90
29817;DHT22;16805;52.956;5.906;2023-07-20T05:20:51;17.50;99.90
29817;DHT22;16805;52.956;5.906;2023-07-20T05:23:20;17.70;99.90
29817;DHT22;16805;52.956;5.906;2023-07-20T05:25:46;17.90;99.90
29817;DHT22;16805;52.956;5.906;2023-07-20T05:28:11;18.10;99.90
29817;DHT22;16805;52.956;5.906;2023-07-20T05:30:37;18.20;99.90
29817;DHT22;16805;52.956;5.906;2023-07-20T05:33:03;18.40;99.90
29817;DHT22;16805;52.956;5.906;2023-07-20T05:35:29;18.60;99.90
29817;DHT22;16805;52.956;5.906;2023-07-20T05:37:54;18.80;99.90
29817;DHT22;16805;52.956;5.906;2023-07-20T05:40:20;18.90;99.90
29817;DHT22;16805;52.956;5.906;2023-07-20T05:42:47;19.10;99.90
29817;DHT22;16805;52.956;5.906;2023-07-20T05:45:17;19.30;99.90
29817;DHT22;16805;52.956;5.906;2023-07-20T05:47:44;19.40;99.90
29817;DHT22;16805;52.956;5.906;2023-07-20T05:50:10;19.60;99.90
29817;DHT22;16805;52.956;5.906;2023-07-20T05:52:36;19.70;99.90
29817;DHT22;16805;52.956;5.906;2023-07-20T05:55:05;19.90;99.90
29817;DHT22;16805;52.956;5.906;2023-07-20T05:57:30;20.00;99.90
29817;DHT22;16805;52.956;5.906;2023-07-20T05:59:56;20.20;99.90
29817;DHT22;16805;52.956;5.906;2023-07-20T06:02:22;20.30;99.90
29817;DHT22;16805;52.956;5.906;2023-07-20T06:04:48;20.50;99.90
29817;DHT22;16805;52.956;5.906;2023-07-20T06:07:13;20.60;99.90
29817;DHT22;16805;52.956;5.906;2023-07-20T06:09:39;20.80;99.90
29817;DHT22;16805;52.956;5.906;2023-07-20T06:12:05;20.90;99.90
29817;DHT22;16805;52.956;5.906;2023-07-20T06:14:31;21.00;99.90
29817;DHT22;16805;52.956;5.906;2023-07-20T06:16:57;21.00;99.90
29817;DHT22;16805;52.956;5.906;2023-07-20T06:19:23;21.10;99.90
29817;DHT22;16805;52.956;5.906;2023-07-20T06:21:49;21.10;99.90
29817;DHT22;16805;52.956;5.906;2023-07-20T06:24:18;21.00;99.90
29817;DHT22;16805;52.956;5.906;2023-07-20T06:26:44;21.00;99.90
29817;DHT22;16805;52.956;5.906;2023-07-20T06:29:09;21.00;99.90
29817;DHT22;16805;52.956;5.906;2023-07-20T06:31:36;21.00;99.90
29817;DHT22;16805;52.956;5.906;2023-07-20T06:34:02;21.10;99.90
29817;DHT22;16805;52.956;5.906;2023-07-20T06:36:29;21.30;99.90
29817;DHT22;16805;52.956;5.906;2023-07-20T06:38:55;21.50;99.90
29817;DHT22;16805;52.956;5.906;2023-07-20T06:41:21;21.60;99.90
29817;DHT22;16805;52.956;5.906;2023-07-20T06:43:47;21.70;99.90
29817;DHT22;16805;52.956;5.906;2023-07-20T06:46:13;21.80;99.90
29817;DHT22;16805;52.956;5.906;2023-07-20T06:48:39;21.80;99.90
29817;DHT22;16805;52.956;5.906;2023-07-20T06:51:05;21.70;99.90
29817;DHT22;16805;52.956;5.906;2023-07-20T06:53:31;21.60;99.90
29817;DHT22;16805;52.956;5.906;2023-07-20T06:55:57;21.50;99.90
29817;DHT22;16805;52.956;5.906;2023-07-20T06:58:23;21.30;99.90
29817;DHT22;16805;52.956;5.906;2023-07-20T07:00:49;21.20;99.90
29817;DHT22;16805;52.956;5.906;2023-07-20T07:03:15;21.20;99.90
29817;DHT22;16805;52.956;5.906;2023-07-20T07:05:41;21.20;99.90
29817;DHT22;16805;52.956;5.906;2023-07-20T07:08:07;21.30;99.90
29817;DHT22;16805;52.956;5.906;2023-07-20T07:10:34;21.50;99.90
29817;DHT22;16805;52.956;5.906;2023-07-20T07:13:00;21.70;99.90
29817;DHT22;16805;52.956;5.906;2023-07-20T07:15:26;21.90;99.90
29817;DHT22;16805;52.956;5.906;2023-07-20T07:17:53;21.90;99.90
29817;DHT22;16805;52.956;5.906;2023-07-20T07:20:18;21.90;99.90
29817;DHT22;16805;52.956;5.906;2023-07-20T07:22:44;21.70;99.90
29817;DHT22;16805;52.956;5.906;2023-07-20T07:25:11;21.80;99.90
29817;DHT22;16805;52.956;5.906;2023-07-20T07:27:36;21.90;99.90
29817;DHT22;16805;52.956;5.906;2023-07-20T07:30:03;21.90;99.90
29817;DHT22;16805;52.956;5.906;2023-07-20T07:32:29;21.90;99.90
29817;DHT22;16805;52.956;5.906;2023-07-20T07:34:54;22.00;99.90
29817;DHT22;16805;52.956;5.906;2023-07-20T07:37:21;22.00;99.90
29817;DHT22;16805;52.956;5.906;2023-07-20T07:39:47;22.00;99.90
29817;DHT22;16805;52.956;5.906;2023-07-20T07:42:12;22.00;99.90
29817;DHT22;16805;52.956;5.906;2023-07-20T07:44:38;21.90;99.90
29817;DHT22;16805;52.956;5.906;2023-07-20T07:47:04;21.90;99.90
29817;DHT22;16805;52.956;5.906;2023-07-20T07:49:30;22.00;99.90
29817;DHT22;16805;52.956;5.906;2023-07-20T07:51:56;22.00;99.90
29817;DHT22;16805;52.956;5.906;2023-07-20T07:54:22;22.10;99.90
29817;DHT22;16805;52.956;5.906;2023-07-20T07:56:48;22.00;99.90
29817;DHT22;16805;52.956;5.906;2023-07-20T07:59:14;22.00;99.90
29817;DHT22;16805;52.956;5.906;2023-07-20T08:01:39;22.10;99.90
29817;DHT22;16805;52.956;5.906;2023-07-20T08:04:05;22.10;99.90
29817;DHT22;16805;52.956;5.906;2023-07-20T08:06:31;22.20;99.90
29817;DHT22;16805;52.956;5.906;2023-07-20T08:08:57;22.40;99.90
29817;DHT22;16805;52.956;5.906;2023-07-20T08:11:23;22.70;99.90
29817;DHT22;16805;52.956;5.906;2023-07-20T08:13:49;22.90;99.90
29817;DHT22;16805;52.956;5.906;2023-07-20T08:16:15;23.20;99.90
29817;DHT22;16805;52.956;5.906;2023-07-20T08:18:41;23.40;99.90
29817;DHT22;16805;52.956;5.906;2023-07-20T08:21:06;23.50;99.90
29817;DHT22;16805;52.956;5.906;2023-07-20T08:23:32;23.70;99.90
29817;DHT22;16805;52.956;5.906;2023-07-20T08:25:58;23.90;99.90
29817;DHT22;16805;52.956;5.906;2023-07-20T08:28:24;24.10;99.90
29817;DHT22;16805;52.956;5.906;2023-07-20T08:30:49;24.20;99.90
29817;DHT22;16805;52.956;5.906;2023-07-20T08:33:17;24.40;99.90
29817;DHT22;16805;52.956;5.906;2023-07-20T08:35:46;24.50;99.90
29817;DHT22;16805;52.956;5.906;2023-07-20T08:38:12;24.40;99.90
29817;DHT22;16805;52.956;5.906;2023-07-20T08:40:45;24.40;99.90
29817;DHT22;16805;52.956;5.906;2023-07-20T08:43:11;24.50;99.90
29817;DHT22;16805;52.956;5.906;2023-07-20T08:45:39;24.50;99.90
29817;DHT22;16805;52.956;5.906;2023-07-20T08:48:06;24.60;99.90
29817;DHT22;16805;52.956;5.906;2023-07-20T08:50:32;24.70;99.90
29817;DHT22;16805;52.956;5.906;2023-07-20T08:52:59;24.90;99.90
29817;DHT22;16805;52.956;5.906;2023-07-20T08:55:29;25.10;99.90
29817;DHT22;16805;52.956;5.906;2023-07-20T08:57:56;25.00;99.90
29817;DHT22;16805;52.956;5.906;2023-07-20T09:00:24;24.80;99.90
29817;DHT22;16805;52.956;5.906;2023-07-20T09:02:52;24.60;99.90
29817;DHT22;16805;52.956;5.906;2023-07-20T09:05:18;24.60;99.90
29817;DHT22;16805;52.956;5.906;2023-07-20T09:07:44;24.70;99.90
29817;DHT22;16805;52.956;5.906;2023-07-20T09:10:10;24.80;99.90
29817;DHT22;16805;52.956;5.906;2023-07-20T09:12:43;24.90;99.90
29817;DHT22;16805;52.956;5.906;2023-07-20T09:15:11;25.10;99.90
29817;DHT22;16805;52.956;5.906;2023-07-20T09:17:37;25.30;99.90
29817;DHT22;16805;52.956;5.906;2023-07-20T09:20:07;25.40;99.90
29817;DHT22;16805;52.956;5.906;2023-07-20T09:22:34;25.60;99.90
29817;DHT22;16805;52.956;5.906;2023-07-20T09:25:00;25.80;99.90
29817;DHT22;16805;52.956;5.906;2023-07-20T09:27:36;25.90;99.90
29817;DHT22;16805;52.956;5.906;2023-07-20T09:30:03;26.00;99.90
29817;DHT22;16805;52.956;5.906;2023-07-20T09:32:29;26.10;99.90
29817;DHT22;16805;52.956;5.906;2023-07-20T09:34:55;26.20;99.90
29817;DHT22;16805;52.956;5.906;2023-07-20T09:37:21;26.30;99.90
29817;DHT22;16805;52.956;5.906;2023-07-20T09:39:47;26.40;99.90
29817;DHT22;16805;52.956;5.906;2023-07-20T09:42:15;26.40;99.90
29817;DHT22;16805;52.956;5.906;2023-07-20T09:44:43;26.40;99.90
29817;DHT22;16805;52.956;5.906;2023-07-20T09:47:09;26.30;99.90
29817;DHT22;16805;52.956;5.906;2023-07-20T09:49:42;26.30;99.90
29817;DHT22;16805;52.956;5.906;2023-07-20T09:52:11;26.30;99.90
29817;DHT22;16805;52.956;5.906;2023-07-20T09:54:39;26.30;99.90
29817;DHT22;16805;52.956;5.906;2023-07-20T09:57:08;26.30;99.90
29817;DHT22;16805;52.956;5.906;2023-07-20T09:59:34;26.30;99.90
29817;DHT22;16805;52.956;5.906;2023-07-20T10:02:02;26.10;99.90
29817;DHT22;16805;52.956;5.906;2023-07-20T10:04:30;26.10;99.90
29817;DHT22;16805;52.956;5.906;2023-07-20T10:06:58;26.00;99.20
29817;DHT22;16805;52.956;5.906;2023-07-20T10:09:25;26.10;99.90
29817;DHT22;16805;52.956;5.906;2023-07-20T10:11:53;26.20;99.90
29817;DHT22;16805;52.956;5.906;2023-07-20T10:14:23;26.30;99.90
29817;DHT22;16805;52.956;5.906;2023-07-20T10:16:55;26.40;99.90
29817;DHT22;16805;52.956;5.906;2023-07-20T10:19:30;26.40;99.90
29817;DHT22;16805;52.956;5.906;2023-07-20T10:22:13;26.50;99.90
29817;DHT22;16805;52.956;5.906;2023-07-20T10:24:44;26.50;99.90
29817;DHT22;16805;52.956;5.906;2023-07-20T10:27:10;26.60;99.90
29817;DHT22;16805;52.956;5.906;2023-07-20T10:29:36;26.60;98.90
29817;DHT22;16805;52.956;5.906;2023-07-20T10:32:03;26.40;99.10
29817;DHT22;16805;52.956;5.906;2023-07-20T10:34:29;26.20;99.20
29817;DHT22;16805;52.956;5.906;2023-07-20T10:36:55;26.20;98.10
29817;DHT22;16805;52.956;5.906;2023-07-20T10:39:28;26.20;99.60
29817;DHT22;16805;52.956;5.906;2023-07-20T10:42:10;26.20;99.90
29817;DHT22;16805;52.956;5.906;2023-07-20T10:44:41;26.10;99.90
29817;DHT22;16805;52.956;5.906;2023-07-20T10:47:11;26.00;99.90
29817;DHT22;16805;52.956;5.906;2023-07-20T10:49:57;25.80;99.90
29817;DHT22;16805;52.956;5.906;2023-07-20T10:52:23;25.80;99.90
29817;DHT22;16805;52.956;5.906;2023-07-20T10:54:49;25.80;99.90
29817;DHT22;16805;52.956;5.906;2023-07-20T10:57:23;25.80;99.60
29817;DHT22;16805;52.956;5.906;2023-07-20T10:59:49;25.90;99.90
29817;DHT22;16805;52.956;5.906;2023-07-20T11:02:18;26.10;99.90
29817;DHT22;16805;52.956;5.906;2023-07-20T11:04:46;26.10;99.90
29817;DHT22;16805;52.956;5.906;2023-07-20T11:07:17;26.10;99.90
29817;DHT22;16805;52.956;5.906;2023-07-20T11:09:44;26.10;99.90
29817;DHT22;16805;52.956;5.906;2023-07-20T11:12:14;26.10;99.90
29817;DHT22;16805;52.956;5.906;2023-07-20T11:14:53;26.10;99.90
29817;DHT22;16805;52.956;5.906;2023-07-20T11:17:20;25.90;99.90
29817;DHT22;16805;52.956;5.906;2023-07-20T11:19:56;25.80;99.90
29817;DHT22;16805;52.956;5.906;2023-07-20T11:22:22;25.70;99.90
29817;DHT22;16805;52.956;5.906;2023-07-20T11:24:48;25.50;99.90
29817;DHT22;16805;52.956;5.906;2023-07-20T11:27:16;25.50;99.90
29817;DHT22;16805;52.956;5.906;2023-07-20T11:29:45;25.50;99.90
29817;DHT22;16805;52.956;5.906;2023-07-20T11:32:11;25.50;99.90
29817;DHT22;16805;52.956;5.906;2023-07-20T11:34:36;25.50;99.90
29817;DHT22;16805;52.956;5.906;2023-07-20T11:37:02;25.50;99.90
29817;DHT22;16805;52.956;5.906;2023-07-20T11:39:29;25.30;99.90
29817;DHT22;16805;52.956;5.906;2023-07-20T11:41:56;25.20;99.90
29817;DHT22;16805;52.956;5.906;2023-07-20T11:44:24;25.10;99.90
29817;DHT22;16805;52.956;5.906;2023-07-20T11:47:05;25.10;99.90
29817;DHT22;16805;52.956;5.906;2023-07-20T11:49:39;25.00;99.90
29817;DHT22;16805;52.956;5.906;2023-07-20T11:52:10;25.00;99.90
29817;DHT22;16805;52.956;5.906;2023-07-20T11:54:38;25.10;99.90
29817;DHT22;16805;52.956;5.906;2023-07-20T11:57:04;25.10;99.90
29817;DHT22;16805;52.956;5.906;2023-07-20T11:59:31;25.10;99.90
29817;DHT22;16805;52.956;5.906;2023-07-20T12:02:06;25.10;99.90
29817;DHT22;16805;52.956;5.906;2023-07-20T12:04:32;25.10;99.90
29817;DHT22;16805;52.956;5.906;2023-07-20T12:06:58;25.00;99.90
29817;DHT22;16805;52.956;5.906;2023-07-20T12:09:24;25.00;99.90
29817;DHT22;16805;52.956;5.906;2023-07-20T12:11:50;25.00;99.90
29817;DHT22;16805;52.956;5.906;2023-07-20T12:14:16;25.00;99.90
29817;DHT22;16805;52.956;5.906;2023-07-20T12:16:42;25.00;99.90
29817;DHT22;16805;52.956;5.906;2023-07-20T12:19:11;25.10;99.90
29817;DHT22;16805;52.956;5.906;2023-07-20T12:21:39;25.10;99.90
29817;DHT22;16805;52.956;5.906;2023-07-20T12:24:10;25.10;99.90
29817;DHT22;16805;52.956;5.906;2023-07-20T12:26:36;25.00;99.90
29817;DHT22;16805;52.956;5.906;2023-07-20T12:29:02;25.00;99.90
29817;DHT22;16805;52.956;5.906;2023-07-20T12:31:34;24.90;99.90
29817;DHT22;16805;52.956;5.906;2023-07-20T12:34:01;24.90;99.90
29817;DHT22;16805;52.956;5.906;2023-07-20T12:36:27;24.90;99.90
29817;DHT22;16805;52.956;5.906;2023-07-20T12:38:53;24.90;99.90
29817;DHT22;16805;52.956;5.906;2023-07-20T12:41:19;24.90;99.90
29817;DHT22;16805;52.956;5.906;2023-07-20T12:43:45;24.80;99.90
29817;DHT22;16805;52.956;5.906;2023-07-20T12:46:11;24.70;99.90
29817;DHT22;16805;52.956;5.906;2023-07-20T12:48:39;24.60;99.90
29817;DHT22;16805;52.956;5.906;2023-07-20T12:51:06;24.60;99.90
29817;DHT22;16805;52.956;5.906;2023-07-20T12:53:33;24.60;99.90
29817;DHT22;16805;52.956;5.906;2023-07-20T12:55:59;24.60;99.90
29817;DHT22;16805;52.956;5.906;2023-07-20T12:58:25;24.60;99.90
29817;DHT22;16805;52.956;5.906;2023-07-20T13:00:51;24.60;99.90
29817;DHT22;16805;52.956;5.906;2023-07-20T13:03:17;24.60;99.90
29817;DHT22;16805;52.956;5.906;2023-07-20T13:05:47;24.60;99.90
29817;DHT22;16805;52.956;5.906;2023-07-20T13:08:14;24.60;99.90
29817;DHT22;16805;52.956;5.906;2023-07-20T13:10:39;24.50;99.90
29817;DHT22;16805;52.956;5.906;2023-07-20T13:13:05;24.50;99.90
29817;DHT22;16805;52.956;5.906;2023-07-20T13:15:32;24.50;99.90
29817;DHT22;16805;52.956;5.906;2023-07-20T13:17:59;24.50;99.90
29817;DHT22;16805;52.956;5.906;2023-07-20T13:20:26;24.50;99.90
29817;DHT22;16805;52.956;5.906;2023-07-20T13:22:51;24.40;99.90
29817;DHT22;16805;52.956;5.906;2023-07-20T13:25:17;24.40;99.90
29817;DHT22;16805;52.956;5.906;2023-07-20T13:27:44;24.40;99.90
29817;DHT22;16805;52.956;5.906;2023-07-20T13:30:10;24.40;99.90
29817;DHT22;16805;52.956;5.906;2023-07-20T13:32:44;24.30;99.90
29817;DHT22;16805;52.956;5.906;2023-07-20T13:35:13;24.30;99.90
29817;DHT22;16805;52.956;5.906;2023-07-20T13:37:39;24.30;99.90
29817;DHT22;16805;52.956;5.906;2023-07-20T13:40:05;24.10;99.90
29817;DHT22;16805;52.956;5.906;2023-07-20T13:42:32;24.10;99.90
29817;DHT22;16805;52.956;5.906;2023-07-20T13:44:58;24.10;99.90
29817;DHT22;16805;52.956;5.906;2023-07-20T13:47:24;24.00;99.90
29817;DHT22;16805;52.956;5.906;2023-07-20T13:49:49;24.00;99.90
29817;DHT22;16805;52.956;5.906;2023-07-20T13:52:15;24.00;99.90
29817;DHT22;16805;52.956;5.906;2023-07-20T13:54:41;24.00;99.90
29817;DHT22;16805;52.956;5.906;2023-07-20T13:57:07;24.00;99.90
29817;DHT22;16805;52.956;5.906;2023-07-20T13:59:32;24.10;99.90
29817;DHT22;16805;52.956;5.906;2023-07-20T14:01:58;24.10;99.90
29817;DHT22;16805;52.956;5.906;2023-07-20T14:04:23;24.00;99.90
29817;DHT22;16805;52.956;5.906;2023-07-20T14:06:50;24.10;99.90
29817;DHT22;16805;52.956;5.906;2023-07-20T14:09:15;24.00;99.90
29817;DHT22;16805;52.956;5.906;2023-07-20T14:11:41;24.00;99.90
29817;DHT22;16805;52.956;5.906;2023-07-20T14:14:07;23.90;99.90
29817;DHT22;16805;52.956;5.906;2023-07-20T14:16:32;23.90;99.90
29817;DHT22;16805;52.956;5.906;2023-07-20T14:18:58;23.80;99.90
29817;DHT22;16805;52.956;5.906;2023-07-20T14:21:24;23.80;99.90
29817;DHT22;16805;52.956;5.906;2023-07-20T14:23:51;23.80;99.90
29817;DHT22;16805;52.956;5.906;2023-07-20T14:26:20;23.80;99.90
29817;DHT22;16805;52.956;5.906;2023-07-20T14:28:46;23.70;99.90
29817;DHT22;16805;52.956;5.906;2023-07-20T14:31:12;23.70;99.90
29817;DHT22;16805;52.956;5.906;2023-07-20T14:33:38;23.70;99.90
29817;DHT22;16805;52.956;5.906;2023-07-20T14:36:03;23.70;99.90
29817;DHT22;16805;52.956;5.906;2023-07-20T14:38:31;23.60;99.90
29817;DHT22;16805;52.956;5.906;2023-07-20T14:40:57;23.60;99.90
29817;DHT22;16805;52.956;5.906;2023-07-20T14:43:23;23.60;99.90
29817;DHT22;16805;52.956;5.906;2023-07-20T14:45:48;23.60;99.90
29817;DHT22;16805;52.956;5.906;2023-07-20T14:48:14;23.60;99.90
29817;DHT22;16805;52.956;5.906;2023-07-20T14:50:39;23.60;99.90
29817;DHT22;16805;52.956;5.906;2023-07-20T14:53:05;23.60;99.90
29817;DHT22;16805;52.956;5.906;2023-07-20T14:55:31;23.70;99.90
29817;DHT22;16805;52.956;5.906;2023-07-20T14:57:57;23.70;99.90
29817;DHT22;16805;52.956;5.906;2023-07-20T15:00:22;23.70;99.90
29817;DHT22;16805;52.956;5.906;2023-07-20T15:02:48;23.70;99.90
29817;DHT22;16805;52.956;5.906;2023-07-20T15:05:21;23.70;99.90
29817;DHT22;16805;52.956;5.906;2023-07-20T15:07:47;23.70;99.90
29817;DHT22;16805;52.956;5.906;2023-07-20T15:10:13;23.70;99.90
29817;DHT22;16805;52.956;5.906;2023-07-20T15:12:39;23.70;99.90
29817;DHT22;16805;52.956;5.906;2023-07-20T15:15:12;23.60;99.90
29817;DHT22;16805;52.956;5.906;2023-07-20T15:17:40;23.50;99.90
29817;DHT22;16805;52.956;5.906;2023-07-20T15:20:07;23.50;99.90
29817;DHT22;16805;52.956;5.906;2023-07-20T15:22:34;23.50;99.90
29817;DHT22;16805;52.956;5.906;2023-07-20T15:25:04;23.40;99.90
29817;DHT22;16805;52.956;5.906;2023-07-20T15:27:30;23.40;99.90
29817;DHT22;16805;52.956;5.906;2023-07-20T15:29:56;23.30;99.90
29817;DHT22;16805;52.956;5.906;2023-07-20T15:32:22;23.30;99.90